sensor_id;sensor_type;location;lat;lon;timestamp;pressure;altitude;pressure_sealevel;temperature
82411;BMP180;74662;60.040;30.218;2023-12-28T00:00:18;99764.00;;;2.40
82411;BMP180;74662;60.040;30.218;2023-12-28T00:01:19;99693.00;;;2.40
82411;BMP180;74662;60.040;30.218;2023-12-28T00:02:19;99768.00;;;2.40
82411;BMP180;74662;60.040;30.218;2023-12-28T00:03:20;99687.00;;;2.40
82411;BMP180;74662;60.040;30.218;2023-12-28T00:04:20;99774.00;;;2.40
82411;BMP180;74662;60.040;30.218;2023-12-28T00:05:21;99773.00;;;2.40
82411;BMP180;74662;60.040;30.218;2023-12-28T00:06:21;99772.00;;;2.40
82411;BMP180;74662;60.040;30.218;2023-12-28T00:07:22;99738.00;;;2.40
82411;BMP180;74662;60.040;30.218;2023-12-28T00:08:23;99776.00;;;2.50
82411;BMP180;74662;60.040;30.218;2023-12-28T00:09:23;99782.00;;;2.50
82411;BMP180;74662;60.040;30.218;2023-12-28T00:10:25;99758.00;;;2.50
82411;BMP180;74662;60.040;30.218;2023-12-28T00:11:26;99771.00;;;2.50
82411;BMP180;74662;60.040;30.218;2023-12-28T00:12:27;99772.00;;;2.50
82411;BMP180;74662;60.040;30.218;2023-12-28T00:13:27;99762.00;;;2.50
82411;BMP180;74662;60.040;30.218;2023-12-28T00:14:28;99774.00;;;2.50
82411;BMP180;74662;60.040;30.218;2023-12-28T00:15:28;99783.00;;;2.50
82411;BMP180;74662;60.040;30.218;2023-12-28T00:16:30;99722.00;;;2.50
82411;BMP180;74662;60.040;30.218;2023-12-28T00:17:33;99788.00;;;2.50
82411;BMP180;74662;60.040;30.218;2023-12-28T00:18:33;99797.00;;;2.50
82411;BMP180;74662;60.040;30.218;2023-12-28T00:19:34;99733.00;;;2.50
82411;BMP180;74662;60.040;30.218;2023-12-28T00:20:34;99774.00;;;2.50
82411;BMP180;74662;60.040;30.218;2023-12-28T00:21:35;99772.00;;;2.50
82411;BMP180;74662;60.040;30.218;2023-12-28T00:22:36;99779.00;;;2.50
82411;BMP180;74662;60.040;30.218;2023-12-28T00:23:37;99790.00;;;2.60
82411;BMP180;74662;60.040;30.218;2023-12-28T00:24:38;99808.00;;;2.60
82411;BMP180;74662;60.040;30.218;2023-12-28T00:25:38;99788.00;;;2.60
82411;BMP180;74662;60.040;30.218;2023-12-28T00:26:39;99642.00;;;2.60
82411;BMP180;74662;60.040;30.218;2023-12-28T00:27:40;99732.00;;;2.60
82411;BMP180;74662;60.040;30.218;2023-12-28T00:28:40;99810.00;;;2.60
82411;BMP180;74662;60.040;30.218;2023-12-28T00:29:41;99746.00;;;2.60
82411;BMP180;74662;60.040;30.218;2023-12-28T00:30:43;99795.00;;;2.60
82411;BMP180;74662;60.040;30.218;2023-12-28T00:31:44;99781.00;;;2.60
82411;BMP180;74662;60.040;30.218;2023-12-28T00:32:44;99767.00;;;2.60
82411;BMP180;74662;60.040;30.218;2023-12-28T00:33:46;99779.00;;;2.60
82411;BMP180;74662;60.040;30.218;2023-12-28T00:34:46;99821.00;;;2.60
82411;BMP180;74662;60.040;30.218;2023-12-28T00:35:47;99748.00;;;2.60
82411;BMP180;74662;60.040;30.218;2023-12-28T00:36:48;99807.00;;;2.60
82411;BMP180;74662;60.040;30.218;2023-12-28T00:37:48;99805.00;;;2.60
82411;BMP180;74662;60.040;30.218;2023-12-28T00:38:49;99807.00;;;2.60
82411;BMP180;74662;60.040;30.218;2023-12-28T00:39:50;99783.00;;;2.60
82411;BMP180;74662;60.040;30.218;2023-12-28T00:40:51;99806.00;;;2.60
82411;BMP180;74662;60.040;30.218;2023-12-28T00:41:51;99757.00;;;2.60
82411;BMP180;74662;60.040;30.218;2023-12-28T00:42:52;99824.00;;;2.60
82411;BMP180;74662;60.040;30.218;2023-12-28T00:43:52;99820.00;;;2.70
82411;BMP180;74662;60.040;30.218;2023-12-28T00:44:53;99824.00;;;2.70
82411;BMP180;74662;60.040;30.218;2023-12-28T00:45:54;99851.00;;;2.70
82411;BMP180;74662;60.040;30.218;2023-12-28T00:46:54;99832.00;;;2.70
82411;BMP180;74662;60.040;30.218;2023-12-28T00:47:55;99825.00;;;2.70
82411;BMP180;74662;60.040;30.218;2023-12-28T00:48:57;99827.00;;;2.70
82411;BMP180;74662;60.040;30.218;2023-12-28T00:49:57;99826.00;;;2.70
82411;BMP180;74662;60.040;30.218;2023-12-28T00:50:58;99759.00;;;2.70
82411;BMP180;74662;60.040;30.218;2023-12-28T00:52:01;99825.00;;;2.70
82411;BMP180;74662;60.040;30.218;2023-12-28T00:53:02;99810.00;;;2.70
82411;BMP180;74662;60.040;30.218;2023-12-28T00:54:03;99752.00;;;2.70
82411;BMP180;74662;60.040;30.218;2023-12-28T00:55:04;99801.00;;;2.70
82411;BMP180;74662;60.040;30.218;2023-12-28T00:56:05;99810.00;;;2.70
82411;BMP180;74662;60.040;30.218;2023-12-28T00:57:06;99735.00;;;2.70
82411;BMP180;74662;60.040;30.218;2023-12-28T00:58:06;99751.00;;;2.70
82411;BMP180;74662;60.040;30.218;2023-12-28T00:59:07;99797.00;;;2.70
82411;BMP180;74662;60.040;30.218;2023-12-28T01:00:08;99798.00;;;2.70
82411;BMP180;74662;60.040;30.218;2023-12-28T01:01:09;99818.00;;;2.70
82411;BMP180;74662;60.040;30.218;2023-12-28T01:02:10;99805.00;;;2.70
82411;BMP180;74662;60.040;30.218;2023-12-28T01:03:10;99791.00;;;2.70
82411;BMP180;74662;60.040;30.218;2023-12-28T01:04:11;99785.00;;;2.70
82411;BMP180;74662;60.040;30.218;2023-12-28T01:05:12;99812.00;;;2.70
82411;BMP180;74662;60.040;30.218;2023-12-28T01:06:13;99783.00;;;2.70
82411;BMP180;74662;60.040;30.218;2023-12-28T01:07:14;99802.00;;;2.70
82411;BMP180;74662;60.040;30.218;2023-12-28T01:08:14;99768.00;;;2.70
82411;BMP180;74662;60.040;30.218;2023-12-28T01:09:15;99820.00;;;2.70
82411;BMP180;74662;60.040;30.218;2023-12-28T01:10:16;99823.00;;;2.70
82411;BMP180;74662;60.040;30.218;2023-12-28T01:11:16;99822.00;;;2.70
82411;BMP180;74662;60.040;30.218;2023-12-28T01:12:17;99804.00;;;2.70
82411;BMP180;74662;60.040;30.218;2023-12-28T01:13:18;99736.00;;;2.70
82411;BMP180;74662;60.040;30.218;2023-12-28T01:14:18;99755.00;;;2.70
82411;BMP180;74662;60.040;30.218;2023-12-28T01:15:19;99811.00;;;2.70
82411;BMP180;74662;60.040;30.218;2023-12-28T01:16:20;99820.00;;;2.70
82411;BMP180;74662;60.040;30.218;2023-12-28T01:17:21;99818.00;;;2.70
82411;BMP180;74662;60.040;30.218;2023-12-28T01:18:22;99812.00;;;2.70
82411;BMP180;74662;60.040;30.218;2023-12-28T01:19:22;99820.00;;;2.70
82411;BMP180;74662;60.040;30.218;2023-12-28T01:20:23;99809.00;;;2.70
82411;BMP180;74662;60.040;30.218;2023-12-28T01:21:24;99806.00;;;2.70
82411;BMP180;74662;60.040;30.218;2023-12-28T01:22:25;99813.00;;;2.70
82411;BMP180;74662;60.040;30.218;2023-12-28T01:23:25;99800.00;;;2.70
82411;BMP180;74662;60.040;30.218;2023-12-28T01:24:26;99820.00;;;2.70
82411;BMP180;74662;60.040;30.218;2023-12-28T01:25:26;99826.00;;;2.70
82411;BMP180;74662;60.040;30.218;2023-12-28T01:26:27;99766.00;;;2.70
82411;BMP180;74662;60.040;30.218;2023-12-28T01:27:28;99811.00;;;2.70
82411;BMP180;74662;60.040;30.218;2023-12-28T01:28:29;99740.00;;;2.70
82411;BMP180;74662;60.040;30.218;2023-12-28T01:29:30;99824.00;;;2.60
82411;BMP180;74662;60.040;30.218;2023-12-28T01:30:30;99822.00;;;2.70
82411;BMP180;74662;60.040;30.218;2023-12-28T01:31:31;99828.00;;;2.70
82411;BMP180;74662;60.040;30.218;2023-12-28T01:32:32;99769.00;;;2.70
82411;BMP180;74662;60.040;30.218;2023-12-28T01:33:32;99832.00;;;2.60
82411;BMP180;74662;60.040;30.218;2023-12-28T01:34:33;99782.00;;;2.70
82411;BMP180;74662;60.040;30.218;2023-12-28T01:35:33;99785.00;;;2.60
82411;BMP180;74662;60.040;30.218;2023-12-28T01:36:34;99810.00;;;2.60
82411;BMP180;74662;60.040;30.218;2023-12-28T01:37:35;99823.00;;;2.60
82411;BMP180;74662;60.040;30.218;2023-12-28T01:38:35;99827.00;;;2.60
82411;BMP180;74662;60.040;30.218;2023-12-28T01:39:36;99767.00;;;2.60
82411;BMP180;74662;60.040;30.218;2023-12-28T01:40:37;99766.00;;;2.60
82411;BMP180;74662;60.040;30.218;2023-12-28T01:41:37;99832.00;;;2.60
82411;BMP180;74662;60.040;30.218;2023-12-28T01:42:39;99781.00;;;2.60
82411;BMP180;74662;60.040;30.218;2023-12-28T01:43:39;99786.00;;;2.60
82411;BMP180;74662;60.040;30.218;2023-12-28T01:44:40;99847.00;;;2.60
82411;BMP180;74662;60.040;30.218;2023-12-28T01:45:41;99848.00;;;2.60
82411;BMP180;74662;60.040;30.218;2023-12-28T01:46:42;99830.00;;;2.60
82411;BMP180;74662;60.040;30.218;2023-12-28T01:47:42;99834.00;;;2.60
82411;BMP180;74662;60.040;30.218;2023-12-28T01:48:45;99846.00;;;2.60
82411;BMP180;74662;60.040;30.218;2023-12-28T01:49:46;99851.00;;;2.60
82411;BMP180;74662;60.040;30.218;2023-12-28T01:50:47;99825.00;;;2.60
82411;BMP180;74662;60.040;30.218;2023-12-28T01:51:48;99763.00;;;2.60
82411;BMP180;74662;60.040;30.218;2023-12-28T01:52:49;99772.00;;;2.60
82411;BMP180;74662;60.040;30.218;2023-12-28T01:53:51;99841.00;;;2.60
82411;BMP180;74662;60.040;30.218;2023-12-28T01:54:52;99836.00;;;2.60
82411;BMP180;74662;60.040;30.218;2023-12-28T01:55:53;99847.00;;;2.60
82411;BMP180;74662;60.040;30.218;2023-12-28T01:56:54;99818.00;;;2.60
82411;BMP180;74662;60.040;30.218;2023-12-28T01:57:55;99823.00;;;2.60
82411;BMP180;74662;60.040;30.218;2023-12-28T01:58:56;99785.00;;;2.60
82411;BMP180;74662;60.040;30.218;2023-12-28T01:59:56;99831.00;;;2.60
82411;BMP180;74662;60.040;30.218;2023-12-28T02:01:01;99839.00;;;2.50
82411;BMP180;74662;60.040;30.218;2023-12-28T02:02:02;99836.00;;;2.50
82411;BMP180;74662;60.040;30.218;2023-12-28T02:03:03;99835.00;;;2.50
82411;BMP180;74662;60.040;30.218;2023-12-28T02:04:04;99779.00;;;2.50
82411;BMP180;74662;60.040;30.218;2023-12-28T02:05:05;99832.00;;;2.50
82411;BMP180;74662;60.040;30.218;2023-12-28T02:06:06;99785.00;;;2.50
82411;BMP180;74662;60.040;30.218;2023-12-28T02:07:08;99790.00;;;2.50
82411;BMP180;74662;60.040;30.218;2023-12-28T02:08:08;99837.00;;;2.50
82411;BMP180;74662;60.040;30.218;2023-12-28T02:09:09;99837.00;;;2.50
82411;BMP180;74662;60.040;30.218;2023-12-28T02:10:10;99836.00;;;2.50
82411;BMP180;74662;60.040;30.218;2023-12-28T02:11:10;99845.00;;;2.50
82411;BMP180;74662;60.040;30.218;2023-12-28T02:12:11;99771.00;;;2.50
82411;BMP180;74662;60.040;30.218;2023-12-28T02:13:13;99834.00;;;2.50
82411;BMP180;74662;60.040;30.218;2023-12-28T02:14:13;99835.00;;;2.50
82411;BMP180;74662;60.040;30.218;2023-12-28T02:15:14;99828.00;;;2.50
82411;BMP180;74662;60.040;30.218;2023-12-28T02:16:25;99855.00;;;2.50
82411;BMP180;74662;60.040;30.218;2023-12-28T02:18:54;99841.00;;;2.50
82411;BMP180;74662;60.040;30.218;2023-12-28T02:19:57;99858.00;;;2.50
82411;BMP180;74662;60.040;30.218;2023-12-28T02:20:59;99789.00;;;2.50
82411;BMP180;74662;60.040;30.218;2023-12-28T02:22:02;99853.00;;;2.50
82411;BMP180;74662;60.040;30.218;2023-12-28T02:23:03;99857.00;;;2.40
82411;BMP180;74662;60.040;30.218;2023-12-28T02:24:04;99853.00;;;2.40
82411;BMP180;74662;60.040;30.218;2023-12-28T02:25:12;99787.00;;;2.40
82411;BMP180;74662;60.040;30.218;2023-12-28T02:26:13;99845.00;;;2.40
82411;BMP180;74662;60.040;30.218;2023-12-28T02:27:14;99846.00;;;2.40
82411;BMP180;74662;60.040;30.218;2023-12-28T02:28:15;99845.00;;;2.40
82411;BMP180;74662;60.040;30.218;2023-12-28T02:29:15;99836.00;;;2.40
82411;BMP180;74662;60.040;30.218;2023-12-28T02:30:18;99768.00;;;2.40
82411;BMP180;74662;60.040;30.218;2023-12-28T02:31:29;99839.00;;;2.40
82411;BMP180;74662;60.040;30.218;2023-12-28T02:34:16;99783.00;;;2.40
82411;BMP180;74662;60.040;30.218;2023-12-28T02:35:25;99843.00;;;2.40
82411;BMP180;74662;60.040;30.218;2023-12-28T02:36:29;99776.00;;;2.40
82411;BMP180;74662;60.040;30.218;2023-12-28T02:37:30;99825.00;;;2.40
82411;BMP180;74662;60.040;30.218;2023-12-28T02:38:36;99845.00;;;2.40
82411;BMP180;74662;60.040;30.218;2023-12-28T02:39:38;99777.00;;;2.40
82411;BMP180;74662;60.040;30.218;2023-12-28T02:40:41;99775.00;;;2.30
82411;BMP180;74662;60.040;30.218;2023-12-28T02:41:44;99813.00;;;2.40
82411;BMP180;74662;60.040;30.218;2023-12-28T02:42:45;99832.00;;;2.30
82411;BMP180;74662;60.040;30.218;2023-12-28T02:43:47;99760.00;;;2.40
82411;BMP180;74662;60.040;30.218;2023-12-28T02:44:50;99773.00;;;2.40
82411;BMP180;74662;60.040;30.218;2023-12-28T02:45:50;99830.00;;;2.40
82411;BMP180;74662;60.040;30.218;2023-12-28T02:46:51;99851.00;;;2.40
82411;BMP180;74662;60.040;30.218;2023-12-28T02:47:51;99836.00;;;2.40
82411;BMP180;74662;60.040;30.218;2023-12-28T02:48:52;99832.00;;;2.40
82411;BMP180;74662;60.040;30.218;2023-12-28T02:49:53;99823.00;;;2.40
82411;BMP180;74662;60.040;30.218;2023-12-28T02:50:53;99834.00;;;2.40
82411;BMP180;74662;60.040;30.218;2023-12-28T02:51:54;99842.00;;;2.40
82411;BMP180;74662;60.040;30.218;2023-12-28T02:52:54;99766.00;;;2.40
82411;BMP180;74662;60.040;30.218;2023-12-28T02:53:55;99821.00;;;2.40
82411;BMP180;74662;60.040;30.218;2023-12-28T02:54:56;99829.00;;;2.40
82411;BMP180;74662;60.040;30.218;2023-12-28T02:55:56;99753.00;;;2.40
82411;BMP180;74662;60.040;30.218;2023-12-28T02:56:57;99750.00;;;2.40
82411;BMP180;74662;60.040;30.218;2023-12-28T02:57:58;99827.00;;;2.40
82411;BMP180;74662;60.040;30.218;2023-12-28T02:59:02;99787.00;;;2.40
82411;BMP180;74662;60.040;30.218;2023-12-28T03:00:04;99823.00;;;2.40
82411;BMP180;74662;60.040;30.218;2023-12-28T03:01:05;99812.00;;;2.40
82411;BMP180;74662;60.040;30.218;2023-12-28T03:02:06;99809.00;;;2.40
82411;BMP180;74662;60.040;30.218;2023-12-28T03:03:06;99828.00;;;2.40
82411;BMP180;74662;60.040;30.218;2023-12-28T03:04:07;99837.00;;;2.40
82411;BMP180;74662;60.040;30.218;2023-12-28T03:05:09;99764.00;;;2.40
82411;BMP180;74662;60.040;30.218;2023-12-28T03:06:10;99826.00;;;2.40
82411;BMP180;74662;60.040;30.218;2023-12-28T03:07:11;99828.00;;;2.40
82411;BMP180;74662;60.040;30.218;2023-12-28T03:08:11;99838.00;;;2.40
82411;BMP180;74662;60.040;30.218;2023-12-28T03:09:12;99834.00;;;2.40
82411;BMP180;74662;60.040;30.218;2023-12-28T03:10:13;99759.00;;;2.40
82411;BMP180;74662;60.040;30.218;2023-12-28T03:11:14;99813.00;;;2.40
82411;BMP180;74662;60.040;30.218;2023-12-28T03:12:14;99835.00;;;2.40
82411;BMP180;74662;60.040;30.218;2023-12-28T03:13:16;99833.00;;;2.50
82411;BMP180;74662;60.040;30.218;2023-12-28T03:14:17;99821.00;;;2.50
82411;BMP180;74662;60.040;30.218;2023-12-28T03:15:18;99840.00;;;2.50
82411;BMP180;74662;60.040;30.218;2023-12-28T03:16:18;99780.00;;;2.50
82411;BMP180;74662;60.040;30.218;2023-12-28T03:17:19;99835.00;;;2.50
82411;BMP180;74662;60.040;30.218;2023-12-28T03:18:19;99839.00;;;2.50
82411;BMP180;74662;60.040;30.218;2023-12-28T03:19:20;99834.00;;;2.50
82411;BMP180;74662;60.040;30.218;2023-12-28T03:20:21;99817.00;;;2.50
82411;BMP180;74662;60.040;30.218;2023-12-28T03:21:21;99830.00;;;2.50
82411;BMP180;74662;60.040;30.218;2023-12-28T03:22:22;99824.00;;;2.50
82411;BMP180;74662;60.040;30.218;2023-12-28T03:23:23;99812.00;;;2.50
82411;BMP180;74662;60.040;30.218;2023-12-28T03:24:23;99732.00;;;2.50
82411;BMP180;74662;60.040;30.218;2023-12-28T03:25:24;99802.00;;;2.50
82411;BMP180;74662;60.040;30.218;2023-12-28T03:26:25;99843.00;;;2.50
82411;BMP180;74662;60.040;30.218;2023-12-28T03:27:25;99850.00;;;2.50
82411;BMP180;74662;60.040;30.218;2023-12-28T03:28:26;99857.00;;;2.50
82411;BMP180;74662;60.040;30.218;2023-12-28T03:29:27;99846.00;;;2.60
82411;BMP180;74662;60.040;30.218;2023-12-28T03:30:28;99854.00;;;2.50
82411;BMP180;74662;60.040;30.218;2023-12-28T03:31:28;99849.00;;;2.60
82411;BMP180;74662;60.040;30.218;2023-12-28T03:32:29;99852.00;;;2.60
82411;BMP180;74662;60.040;30.218;2023-12-28T03:33:29;99658.00;;;2.60
82411;BMP180;74662;60.040;30.218;2023-12-28T03:34:30;99741.00;;;2.60
82411;BMP180;74662;60.040;30.218;2023-12-28T03:35:31;99835.00;;;2.60
82411;BMP180;74662;60.040;30.218;2023-12-28T03:36:31;99854.00;;;2.60
82411;BMP180;74662;60.040;30.218;2023-12-28T03:37:32;99853.00;;;2.60
82411;BMP180;74662;60.040;30.218;2023-12-28T03:38:32;99831.00;;;2.60
82411;BMP180;74662;60.040;30.218;2023-12-28T03:39:33;99827.00;;;2.60
82411;BMP180;74662;60.040;30.218;2023-12-28T03:40:34;99841.00;;;2.60
82411;BMP180;74662;60.040;30.218;2023-12-28T03:41:35;99775.00;;;2.60
82411;BMP180;74662;60.040;30.218;2023-12-28T03:42:35;99821.00;;;2.60
82411;BMP180;74662;60.040;30.218;2023-12-28T03:43:36;99847.00;;;2.70
82411;BMP180;74662;60.040;30.218;2023-12-28T03:44:37;99842.00;;;2.70
82411;BMP180;74662;60.040;30.218;2023-12-28T03:45:37;99856.00;;;2.70
82411;BMP180;74662;60.040;30.218;2023-12-28T03:46:38;99843.00;;;2.70
82411;BMP180;74662;60.040;30.218;2023-12-28T03:47:39;99858.00;;;2.70
82411;BMP180;74662;60.040;30.218;2023-12-28T03:48:39;99811.00;;;2.70
82411;BMP180;74662;60.040;30.218;2023-12-28T03:49:40;99802.00;;;2.70
82411;BMP180;74662;60.040;30.218;2023-12-28T03:50:41;99846.00;;;2.70
82411;BMP180;74662;60.040;30.218;2023-12-28T03:51:41;99790.00;;;2.80
82411;BMP180;74662;60.040;30.218;2023-12-28T03:52:42;99838.00;;;2.80
82411;BMP180;74662;60.040;30.218;2023-12-28T03:53:43;99802.00;;;2.80
82411;BMP180;74662;60.040;30.218;2023-12-28T03:54:43;99839.00;;;2.80
82411;BMP180;74662;60.040;30.218;2023-12-28T03:55:44;99858.00;;;2.80
82411;BMP180;74662;60.040;30.218;2023-12-28T03:56:46;99850.00;;;2.80
82411;BMP180;74662;60.040;30.218;2023-12-28T03:57:47;99855.00;;;2.80
82411;BMP180;74662;60.040;30.218;2023-12-28T03:58:48;99872.00;;;2.80
82411;BMP180;74662;60.040;30.218;2023-12-28T03:59:48;99866.00;;;2.80
82411;BMP180;74662;60.040;30.218;2023-12-28T04:00:49;99865.00;;;2.80
82411;BMP180;74662;60.040;30.218;2023-12-28T04:01:50;99777.00;;;2.80
82411;BMP180;74662;60.040;30.218;2023-12-28T04:02:50;99858.00;;;2.80
82411;BMP180;74662;60.040;30.218;2023-12-28T04:03:51;99845.00;;;2.80
82411;BMP180;74662;60.040;30.218;2023-12-28T04:04:51;99866.00;;;2.90
82411;BMP180;74662;60.040;30.218;2023-12-28T04:05:52;99802.00;;;2.90
82411;BMP180;74662;60.040;30.218;2023-12-28T04:06:53;99850.00;;;2.90
82411;BMP180;74662;60.040;30.218;2023-12-28T04:07:54;99861.00;;;2.90
82411;BMP180;74662;60.040;30.218;2023-12-28T04:08:54;99851.00;;;2.90
82411;BMP180;74662;60.040;30.218;2023-12-28T04:09:55;99794.00;;;2.90
82411;BMP180;74662;60.040;30.218;2023-12-28T04:10:56;99845.00;;;2.90
82411;BMP180;74662;60.040;30.218;2023-12-28T04:11:57;99867.00;;;2.90
82411;BMP180;74662;60.040;30.218;2023-12-28T04:12:58;99873.00;;;3.00
82411;BMP180;74662;60.040;30.218;2023-12-28T04:13:59;99851.00;;;2.90
82411;BMP180;74662;60.040;30.218;2023-12-28T04:15:00;99773.00;;;3.00
82411;BMP180;74662;60.040;30.218;2023-12-28T04:16:00;99844.00;;;3.00
82411;BMP180;74662;60.040;30.218;2023-12-28T04:17:01;99872.00;;;3.00
82411;BMP180;74662;60.040;30.218;2023-12-28T04:18:02;99862.00;;;3.00
82411;BMP180;74662;60.040;30.218;2023-12-28T04:19:03;99850.00;;;3.00
82411;BMP180;74662;60.040;30.218;2023-12-28T04:20:05;99862.00;;;3.00
82411;BMP180;74662;60.040;30.218;2023-12-28T04:21:10;99861.00;;;3.00
82411;BMP180;74662;60.040;30.218;2023-12-28T04:22:11;99870.00;;;3.00
82411;BMP180;74662;60.040;30.218;2023-12-28T04:23:12;99864.00;;;3.00
82411;BMP180;74662;60.040;30.218;2023-12-28T04:24:12;99789.00;;;3.00
82411;BMP180;74662;60.040;30.218;2023-12-28T04:25:13;99855.00;;;3.10
82411;BMP180;74662;60.040;30.218;2023-12-28T04:26:19;99848.00;;;3.00
82411;BMP180;74662;60.040;30.218;2023-12-28T04:27:22;99844.00;;;3.10
82411;BMP180;74662;60.040;30.218;2023-12-28T04:28:23;99857.00;;;3.10
82411;BMP180;74662;60.040;30.218;2023-12-28T04:29:23;99785.00;;;3.10
82411;BMP180;74662;60.040;30.218;2023-12-28T04:30:24;99858.00;;;3.10
82411;BMP180;74662;60.040;30.218;2023-12-28T04:31:25;99846.00;;;3.10
82411;BMP180;74662;60.040;30.218;2023-12-28T04:32:26;99794.00;;;3.10
82411;BMP180;74662;60.040;30.218;2023-12-28T04:33:27;99839.00;;;3.10
82411;BMP180;74662;60.040;30.218;2023-12-28T04:34:27;99835.00;;;3.10
82411;BMP180;74662;60.040;30.218;2023-12-28T04:35:28;99834.00;;;3.10
82411;BMP180;74662;60.040;30.218;2023-12-28T04:36:29;99824.00;;;3.10
82411;BMP180;74662;60.040;30.218;2023-12-28T04:37:29;99842.00;;;3.20
82411;BMP180;74662;60.040;30.218;2023-12-28T04:38:31;99842.00;;;3.10
82411;BMP180;74662;60.040;30.218;2023-12-28T04:39:32;99849.00;;;3.20
82411;BMP180;74662;60.040;30.218;2023-12-28T04:40:32;99854.00;;;3.20
82411;BMP180;74662;60.040;30.218;2023-12-28T04:41:33;99837.00;;;3.20
82411;BMP180;74662;60.040;30.218;2023-12-28T04:42:34;99846.00;;;3.20
82411;BMP180;74662;60.040;30.218;2023-12-28T04:43:35;99837.00;;;3.20
82411;BMP180;74662;60.040;30.218;2023-12-28T04:44:39;99836.00;;;3.20
82411;BMP180;74662;60.040;30.218;2023-12-28T04:45:39;99847.00;;;3.20
82411;BMP180;74662;60.040;30.218;2023-12-28T04:46:40;99763.00;;;3.20
82411;BMP180;74662;60.040;30.218;2023-12-28T04:47:43;99831.00;;;3.20
82411;BMP180;74662;60.040;30.218;2023-12-28T04:48:43;99846.00;;;3.20
82411;BMP180;74662;60.040;30.218;2023-12-28T04:49:44;99839.00;;;3.20
82411;BMP180;74662;60.040;30.218;2023-12-28T04:50:45;99829.00;;;3.30
82411;BMP180;74662;60.040;30.218;2023-12-28T04:51:45;99834.00;;;3.30
82411;BMP180;74662;60.040;30.218;2023-12-28T04:52:46;99780.00;;;3.30
82411;BMP180;74662;60.040;30.218;2023-12-28T04:53:46;99838.00;;;3.30
82411;BMP180;74662;60.040;30.218;2023-12-28T04:54:47;99848.00;;;3.30
82411;BMP180;74662;60.040;30.218;2023-12-28T04:55:47;99807.00;;;3.30
82411;BMP180;74662;60.040;30.218;2023-12-28T04:56:48;99825.00;;;3.30
82411;BMP180;74662;60.040;30.218;2023-12-28T04:57:49;99833.00;;;3.30
82411;BMP180;74662;60.040;30.218;2023-12-28T04:58:50;99830.00;;;3.30
82411;BMP180;74662;60.040;30.218;2023-12-28T04:59:51;99833.00;;;3.30
82411;BMP180;74662;60.040;30.218;2023-12-28T05:00:51;99839.00;;;3.40
82411;BMP180;74662;60.040;30.218;2023-12-28T05:01:52;99785.00;;;3.40
82411;BMP180;74662;60.040;30.218;2023-12-28T05:02:52;99838.00;;;3.40
82411;BMP180;74662;60.040;30.218;2023-12-28T05:03:53;99837.00;;;3.40
82411;BMP180;74662;60.040;30.218;2023-12-28T05:04:54;99819.00;;;3.40
82411;BMP180;74662;60.040;30.218;2023-12-28T05:05:54;99808.00;;;3.40
82411;BMP180;74662;60.040;30.218;2023-12-28T05:06:55;99772.00;;;3.40
82411;BMP180;74662;60.040;30.218;2023-12-28T05:07:55;99834.00;;;3.40
82411;BMP180;74662;60.040;30.218;2023-12-28T05:08:56;99778.00;;;3.40
82411;BMP180;74662;60.040;30.218;2023-12-28T05:09:57;99831.00;;;3.40
82411;BMP180;74662;60.040;30.218;2023-12-28T05:10:57;99823.00;;;3.40
82411;BMP180;74662;60.040;30.218;2023-12-28T05:11:58;99833.00;;;3.40
82411;BMP180;74662;60.040;30.218;2023-12-28T05:12:58;99812.00;;;3.40
82411;BMP180;74662;60.040;30.218;2023-12-28T05:13:59;99760.00;;;3.50
82411;BMP180;74662;60.040;30.218;2023-12-28T05:15:00;99766.00;;;3.50
82411;BMP180;74662;60.040;30.218;2023-12-28T05:16:01;99790.00;;;3.50
82411;BMP180;74662;60.040;30.218;2023-12-28T05:17:01;99823.00;;;3.50
82411;BMP180;74662;60.040;30.218;2023-12-28T05:18:02;99828.00;;;3.50
82411;BMP180;74662;60.040;30.218;2023-12-28T05:19:03;99822.00;;;3.50
82411;BMP180;74662;60.040;30.218;2023-12-28T05:20:04;99759.00;;;3.50
82411;BMP180;74662;60.040;30.218;2023-12-28T05:21:04;99818.00;;;3.50
82411;BMP180;74662;60.040;30.218;2023-12-28T05:22:05;99811.00;;;3.50
82411;BMP180;74662;60.040;30.218;2023-12-28T05:23:08;99780.00;;;3.50
82411;BMP180;74662;60.040;30.218;2023-12-28T05:24:09;99757.00;;;3.50
82411;BMP180;74662;60.040;30.218;2023-12-28T05:25:10;99807.00;;;3.50
82411;BMP180;74662;60.040;30.218;2023-12-28T05:26:10;99807.00;;;3.50
82411;BMP180;74662;60.040;30.218;2023-12-28T05:27:11;99827.00;;;3.50
82411;BMP180;74662;60.040;30.218;2023-12-28T05:28:11;99808.00;;;3.50
82411;BMP180;74662;60.040;30.218;2023-12-28T05:29:12;99806.00;;;3.50
82411;BMP180;74662;60.040;30.218;2023-12-28T05:30:13;99822.00;;;3.50
82411;BMP180;74662;60.040;30.218;2023-12-28T05:31:13;99808.00;;;3.60
82411;BMP180;74662;60.040;30.218;2023-12-28T05:32:14;99768.00;;;3.60
82411;BMP180;74662;60.040;30.218;2023-12-28T05:33:15;99809.00;;;3.60
82411;BMP180;74662;60.040;30.218;2023-12-28T05:34:15;99753.00;;;3.60
82411;BMP180;74662;60.040;30.218;2023-12-28T05:35:16;99821.00;;;3.60
82411;BMP180;74662;60.040;30.218;2023-12-28T05:36:16;99836.00;;;3.60
82411;BMP180;74662;60.040;30.218;2023-12-28T05:37:17;99819.00;;;3.60
82411;BMP180;74662;60.040;30.218;2023-12-28T05:38:18;99826.00;;;3.60
82411;BMP180;74662;60.040;30.218;2023-12-28T05:39:18;99833.00;;;3.60
82411;BMP180;74662;60.040;30.218;2023-12-28T05:40:19;99827.00;;;3.60
82411;BMP180;74662;60.040;30.218;2023-12-28T05:41:19;99753.00;;;3.60
82411;BMP180;74662;60.040;30.218;2023-12-28T05:42:21;99841.00;;;3.60
82411;BMP180;74662;60.040;30.218;2023-12-28T05:43:21;99837.00;;;3.60
82411;BMP180;74662;60.040;30.218;2023-12-28T05:44:22;99840.00;;;3.60
82411;BMP180;74662;60.040;30.218;2023-12-28T05:45:22;99827.00;;;3.60
82411;BMP180;74662;60.040;30.218;2023-12-28T05:46:23;99828.00;;;3.60
82411;BMP180;74662;60.040;30.218;2023-12-28T05:47:23;99781.00;;;3.60
82411;BMP180;74662;60.040;30.218;2023-12-28T05:48:24;99832.00;;;3.60
82411;BMP180;74662;60.040;30.218;2023-12-28T05:49:25;99846.00;;;3.60
82411;BMP180;74662;60.040;30.218;2023-12-28T05:50:25;99847.00;;;3.60
82411;BMP180;74662;60.040;30.218;2023-12-28T05:51:26;99847.00;;;3.60
82411;BMP180;74662;60.040;30.218;2023-12-28T05:52:26;99831.00;;;3.70
82411;BMP180;74662;60.040;30.218;2023-12-28T05:53:27;99821.00;;;3.70
82411;BMP180;74662;60.040;30.218;2023-12-28T05:54:29;99847.00;;;3.60